< < Back
Terminal Aerodrome Forecast


Current Version              Previous Versions:   1  2  3  4  5  6  7  8  9  

Terminal Aerodrome Forecast

888
FTUS42 KFFC 010915 AAA
TAFMCN
TAF AMD
KMCN 010915Z 0109/0206 16004KT P6SM SCT080
     FM011200 18004KT 4SM BR OVC015
     FM011500 21006KT P6SM SCT015
     FM011600 22008KT P6SM VCSH BKN025
     FM012200 23009KT 4SM -TSRA BKN030CB=

Latest METAR

261
SAUS80 KWBC 011000 RRE
MTRMCN
METAR KMCN 010953Z AUTO 14003KT 9SM CLR 19/18 A3000 RMK AO2 SLP155
T01940183 TSNO


USA.gov is the U.S. government's official web portal to all federal, state and local government web resources and services.